Time;durP1;ratioP1;P1;durP2;ratioP2;P2;SDS_P1;SDS_P2;PMS_P1;PMS_P2;Temp;Humidity;BMP_temperature;BMP_pressure;BME280_temperature;BME280_humidity;BME280_pressure;Samples;Min_cycle;Max_cycle;Signal;HPM_P1;HPM_P2
2022/01/28 00:05:02;;;;;;;8.18;1.95;;;;;;;;;;5109149;28;20055;-60
2022/01/28 00:07:29;;;;;;;5.93;1.67;;;;;;;;;;5109267;28;20031;-60
2022/01/28 00:09:55;;;;;;;8.00;1.98;;;;;;;;;;5109161;28;20036;-60
2022/01/28 00:12:22;;;;;;;7.47;1.70;;;;;;;;;;5109192;28;20040;-60
2022/01/28 00:15:19;;;;;;;10.25;2.40;;;;;;;;;;5109377;28;20145;-60
2022/01/28 00:18:07;;;;;;;9.82;1.88;;;;;;;;;;5108464;28;20035;-60
2022/01/28 00:36:32;;;;;;;7.20;1.90;;;;;;;;;;5109646;28;20053;-60
2022/01/28 00:39:47;;;;;;;5.43;1.55;;;;;;;;;;5107761;28;20120;-60
2022/01/28 00:42:13;;;;;;;8.98;2.35;;;;;;;;;;5107423;28;20252;-60
2022/01/28 00:44:39;;;;;;;9.70;1.80;;;;;;;;;;5108986;28;20039;-60
2022/01/28 00:47:05;;;;;;;8.88;2.03;;;;;;;;;;5107328;28;20526;-60
2022/01/28 00:49:31;;;;;;;8.13;1.45;;;;;;;;;;5111323;28;20054;-60
2022/01/28 00:51:57;;;;;;;7.18;1.90;;;;;;;;;;5113048;28;20040;-60
2022/01/28 00:54:23;;;;;;;9.55;1.73;;;;;;;;;;5112729;28;20039;-60
2022/01/28 00:56:49;;;;;;;8.20;2.17;;;;;;;;;;5111653;28;20043;-60
2022/01/28 00:59:15;;;;;;;7.68;1.55;;;;;;;;;;5114279;28;20118;-60
2022/01/28 01:01:41;;;;;;;8.45;2.20;;;;;;;;;;5111577;28;20052;-60
2022/01/28 01:04:07;;;;;;;10.18;2.05;;;;;;;;;;5113468;28;20083;-60
2022/01/28 01:06:34;;;;;;;5.57;1.42;;;;;;;;;;5112158;28;20062;-60
2022/01/28 01:09:00;;;;;;;9.90;1.90;;;;;;;;;;5112907;28;20035;-60
2022/01/28 01:11:27;;;;;;;7.05;1.80;;;;;;;;;;5112854;28;20046;-60
2022/01/28 01:13:53;;;;;;;8.57;1.90;;;;;;;;;;5112378;28;20055;-60
2022/01/28 01:16:27;;;;;;;8.80;2.08;;;;;;;;;;5112567;28;20059;-60
2022/01/28 01:21:41;;;;;;;7.60;1.85;;;;;;;;;;5112387;28;20127;-60
2022/01/28 01:24:09;;;;;;;6.57;1.80;;;;;;;;;;5112800;28;20471;-60
2022/01/28 01:26:38;;;;;;;7.25;1.63;;;;;;;;;;5112794;28;20035;-60
2022/01/28 01:29:12;;;;;;;6.75;1.63;;;;;;;;;;5111862;28;20051;-60
2022/01/28 01:31:41;;;;;;;;;;;;;;;;;;5096458;28;20139;-60
2022/01/28 01:34:13;;;;;;;9.00;1.90;;;;;;;;;;5110146;28;20263;-61
2022/01/28 01:36:39;;;;;;;7.47;1.80;;;;;;;;;;5112583;28;20043;-60
2022/01/28 01:39:07;;;;;;;7.47;1.50;;;;;;;;;;5112317;28;20578;-60
2022/01/28 01:41:42;;;;;;;7.75;1.75;;;;;;;;;;5112326;28;20052;-59
2022/01/28 01:44:20;;;;;;;7.70;1.73;;;;;;;;;;5075120;28;20032;-60
2022/01/28 01:47:16;;;;;;;10.63;2.10;;;;;;;;;;5092322;28;20042;-60
2022/01/28 01:52:27;;;;;;;7.65;1.70;;;;;;;;;;5111973;28;20104;-60
2022/01/28 01:54:53;;;;;;;9.18;2.28;;;;;;;;;;5093306;28;20055;-60
2022/01/28 01:57:20;;;;;;;7.35;1.73;;;;;;;;;;5110988;28;20035;-60
2022/01/28 01:59:48;;;;;;;9.00;1.92;;;;;;;;;;5112244;28;20337;-60
2022/01/28 02:02:14;;;;;;;7.32;1.77;;;;;;;;;;5109751;28;20594;-61
2022/01/28 02:04:40;;;;;;;7.30;2.00;;;;;;;;;;5110943;28;20363;-60
2022/01/28 02:07:06;;;;;;;9.93;2.38;;;;;;;;;;5112098;28;20348;-60
2022/01/28 02:09:32;;;;;;;9.95;1.90;;;;;;;;;;5111099;28;20036;-60
2022/01/28 02:11:58;;;;;;;6.40;1.90;;;;;;;;;;5112181;28;20115;-60
2022/01/28 02:14:24;;;;;;;7.35;1.60;;;;;;;;;;5112481;28;20138;-60
2022/01/28 02:16:50;;;;;;;7.03;1.75;;;;;;;;;;5112121;28;20558;-60
2022/01/28 02:19:16;;;;;;;8.30;1.85;;;;;;;;;;5110668;28;20122;-60
2022/01/28 02:21:46;;;;;;;8.73;1.98;;;;;;;;;;5111528;28;20126;-60
2022/01/28 02:24:16;;;;;;;9.88;2.20;;;;;;;;;;5112248;28;20054;-60
2022/01/28 02:26:42;;;;;;;8.05;2.30;;;;;;;;;;5110282;28;20054;-61
2022/01/28 02:29:12;;;;;;;7.88;2.05;;;;;;;;;;5112210;28;20031;-60
2022/01/28 02:31:39;;;;;;;8.30;2.17;;;;;;;;;;5111998;28;20398;-61
2022/01/28 02:34:06;;;;;;;10.10;2.20;;;;;;;;;;5110625;28;20441;-60
2022/01/28 02:36:32;;;;;;;8.60;2.00;;;;;;;;;;5111264;28;20041;-60
2022/01/28 02:38:59;;;;;;;6.80;1.60;;;;;;;;;;5112132;28;20036;-60
2022/01/28 02:41:30;;;;;;;9.52;1.75;;;;;;;;;;5111436;28;20036;-60
2022/01/28 02:46:58;;;;;;;9.27;2.08;;;;;;;;;;5031451;28;20036;-60
2022/01/28 02:49:27;;;;;;;9.07;2.00;;;;;;;;;;5032196;28;20120;-60
2022/01/28 02:51:54;;;;;;;7.57;1.70;;;;;;;;;;5047568;28;20188;-60
2022/01/28 02:54:20;;;;;;;8.15;1.70;;;;;;;;;;5048893;28;20064;-61
2022/01/28 02:56:50;;;;;;;7.80;1.83;;;;;;;;;;5047876;28;20049;-60
2022/01/28 02:59:16;;;;;;;8.55;2.03;;;;;;;;;;5047739;28;20037;-61
2022/01/28 03:01:42;;;;;;;8.02;1.80;;;;;;;;;;5048299;28;20053;-61
2022/01/28 03:04:11;;;;;;;9.00;1.90;;;;;;;;;;5031475;28;20244;-60
2022/01/28 03:06:37;;;;;;;10.05;2.25;;;;;;;;;;5047613;28;20037;-60
2022/01/28 03:09:15;;;;;;;9.45;2.30;;;;;;;;;;5047897;28;20049;-60
2022/01/28 03:19:53;;;;;;;9.73;1.73;;;;;;;;;;5006927;28;20046;-60
2022/01/28 03:22:19;;;;;;;8.35;1.80;;;;;;;;;;4998742;28;20090;-60
2022/01/28 03:24:50;;;;;;;10.00;1.95;;;;;;;;;;4975789;28;20128;-60
2022/01/28 03:27:30;;;;;;;7.43;1.83;;;;;;;;;;5009179;28;20053;-61
2022/01/28 03:29:57;;;;;;;10.43;2.53;;;;;;;;;;5027999;28;20099;-60
2022/01/28 03:32:23;;;;;;;9.50;2.10;;;;;;;;;;5027493;28;20038;-60
2022/01/28 03:34:49;;;;;;;8.32;2.00;;;;;;;;;;5027840;28;20057;-60
2022/01/28 03:37:15;;;;;;;10.13;1.98;;;;;;;;;;5027015;28;20033;-60
2022/01/28 03:39:41;;;;;;;8.10;1.90;;;;;;;;;;5011450;28;20124;-61
2022/01/28 03:42:07;;;;;;;8.77;1.95;;;;;;;;;;5026667;28;20470;-61
2022/01/28 03:44:35;;;;;;;7.78;2.00;;;;;;;;;;5010894;28;20057;-60
2022/01/28 03:47:01;;;;;;;8.05;2.03;;;;;;;;;;5027212;28;20412;-60
2022/01/28 03:49:27;;;;;;;10.02;2.15;;;;;;;;;;5010864;28;20092;-61
2022/01/28 03:51:53;;;;;;;8.57;2.15;;;;;;;;;;5026739;28;20041;-60
2022/01/28 03:54:19;;;;;;;9.23;2.10;;;;;;;;;;5066125;28;20056;-60
2022/01/28 03:56:45;;;;;;;9.20;2.20;;;;;;;;;;5101757;28;20047;-61
2022/01/28 03:59:11;;;;;;;9.30;2.28;;;;;;;;;;5109164;28;20047;-61
2022/01/28 04:01:39;;;;;;;9.45;2.17;;;;;;;;;;5109833;28;20564;-61
2022/01/28 04:05:22;;;;;;;7.85;2.22;;;;;;;;;;5108139;28;20357;-61
2022/01/28 04:12:22;;;;;;;8.27;1.70;;;;;;;;;;5110049;28;20046;-60
2022/01/28 04:17:33;;;;;;;8.65;2.25;;;;;;;;;;5109740;28;20043;-60
2022/01/28 04:19:59;;;;;;;7.45;2.17;;;;;;;;;;5091570;28;20046;-61
2022/01/28 04:22:25;;;;;;;7.43;1.83;;;;;;;;;;5107874;28;20372;-61
2022/01/28 04:24:51;;;;;;;9.00;2.13;;;;;;;;;;5109212;28;20035;-61
2022/01/28 04:27:17;;;;;;;10.70;1.98;;;;;;;;;;5109377;28;20040;-61
2022/01/28 04:29:43;;;;;;;8.13;1.80;;;;;;;;;;5110113;28;20043;-61
2022/01/28 04:32:10;;;;;;;8.13;2.03;;;;;;;;;;5108410;28;20047;-61
2022/01/28 04:34:36;;;;;;;8.57;2.00;;;;;;;;;;5109729;28;20032;-61
2022/01/28 04:39:57;;;;;;;8.23;2.00;;;;;;;;;;5046658;28;20143;-60
2022/01/28 04:42:55;;;;;;;8.88;2.15;;;;;;;;;;5030238;28;20110;-61
2022/01/28 04:58:12;;;;;;;8.48;2.25;;;;;;;;;;5046874;28;20377;-61
2022/01/28 05:00:51;;;;;;;7.55;1.88;;;;;;;;;;5030457;28;20055;-61
2022/01/28 05:29:19;;;;;;;8.80;2.05;;;;;;;;;;5109340;28;20472;-61
2022/01/28 05:31:46;;;;;;;10.88;2.30;;;;;;;;;;5090600;28;20051;-61
2022/01/28 05:34:12;;;;;;;9.70;2.00;;;;;;;;;;5087637;28;20051;-61
2022/01/28 05:36:38;;;;;;;8.57;2.60;;;;;;;;;;5105819;28;20036;-61
2022/01/28 05:39:04;;;;;;;11.15;2.65;;;;;;;;;;5112647;28;20039;-61
2022/01/28 05:41:31;;;;;;;9.65;2.17;;;;;;;;;;5111023;28;20057;-62
2022/01/28 05:43:57;;;;;;;9.07;2.38;;;;;;;;;;5111600;28;20050;-61
2022/01/28 05:46:27;;;;;;;8.80;2.28;;;;;;;;;;5094382;28;20437;-61
2022/01/28 05:48:53;;;;;;;8.50;2.60;;;;;;;;;;5111266;28;20123;-61
2022/01/28 05:51:19;;;;;;;8.60;2.40;;;;;;;;;;5111839;28;20055;-61
2022/01/28 05:53:45;;;;;;;13.10;2.75;;;;;;;;;;5111157;28;20043;-61
2022/01/28 05:56:11;;;;;;;10.20;2.17;;;;;;;;;;5112790;28;20039;-60
2022/01/28 05:58:37;;;;;;;7.95;2.28;;;;;;;;;;5112479;28;20062;-61
2022/01/28 06:01:03;;;;;;;7.75;2.03;;;;;;;;;;5111447;28;20467;-61
2022/01/28 06:03:29;;;;;;;9.40;2.10;;;;;;;;;;5112355;28;20384;-61
2022/01/28 06:05:55;;;;;;;7.88;1.90;;;;;;;;;;5112523;28;20042;-62
2022/01/28 06:08:21;;;;;;;7.75;2.15;;;;;;;;;;5112350;28;20164;-61
2022/01/28 06:10:47;;;;;;;9.20;2.00;;;;;;;;;;5110685;28;20047;-61
2022/01/28 06:13:13;;;;;;;8.13;2.03;;;;;;;;;;5112453;28;20082;-61
2022/01/28 06:15:40;;;;;;;9.43;2.22;;;;;;;;;;5110634;28;20090;-61
2022/01/28 06:18:07;;;;;;;10.93;2.20;;;;;;;;;;5112423;28;20483;-61
2022/01/28 06:20:33;;;;;;;8.88;2.50;;;;;;;;;;5111625;28;20928;-61
2022/01/28 06:22:59;;;;;;;10.75;2.22;;;;;;;;;;5111553;28;20493;-61
2022/01/28 06:25:25;;;;;;;8.05;2.03;;;;;;;;;;5110689;28;20064;-61
2022/01/28 06:27:51;;;;;;;6.85;1.65;;;;;;;;;;5112462;28;20067;-61
2022/01/28 06:30:17;;;;;;;8.40;1.95;;;;;;;;;;5111640;28;20039;-61
2022/01/28 06:32:44;;;;;;;9.15;2.10;;;;;;;;;;5112012;28;20099;-61
2022/01/28 06:35:10;;;;;;;8.77;2.28;;;;;;;;;;5112108;28;20326;-61
2022/01/28 06:37:36;;;;;;;7.43;1.92;;;;;;;;;;5111315;28;20032;-61
2022/01/28 06:40:03;;;;;;;7.43;1.73;;;;;;;;;;5112100;28;20114;-61
2022/01/28 06:42:29;;;;;;;9.13;2.28;;;;;;;;;;5111303;28;20126;-61
2022/01/28 06:44:55;;;;;;;8.57;2.38;;;;;;;;;;5110638;28;20035;-61
2022/01/28 06:47:21;;;;;;;7.47;1.98;;;;;;;;;;5110938;28;20043;-61
2022/01/28 06:49:47;;;;;;;8.55;2.10;;;;;;;;;;5111737;28;20050;-61
2022/01/28 06:52:13;;;;;;;7.60;1.92;;;;;;;;;;5110753;28;20044;-61
2022/01/28 06:54:39;;;;;;;8.48;1.80;;;;;;;;;;5112085;28;20075;-61
2022/01/28 06:57:05;;;;;;;9.32;2.05;;;;;;;;;;5109941;28;20035;-61
2022/01/28 06:59:31;;;;;;;9.60;2.20;;;;;;;;;;5111554;28;20046;-61
2022/01/28 07:01:57;;;;;;;9.63;2.40;;;;;;;;;;5110516;28;20061;-61
2022/01/28 07:04:24;;;;;;;8.52;2.38;;;;;;;;;;5111520;28;20172;-62
2022/01/28 07:06:50;;;;;;;8.18;1.77;;;;;;;;;;5109563;28;20051;-61
2022/01/28 07:09:17;;;;;;;8.48;2.22;;;;;;;;;;5111202;28;20040;-61
2022/01/28 07:11:43;;;;;;;8.60;2.08;;;;;;;;;;5110878;28;20252;-61
2022/01/28 07:14:09;;;;;;;8.77;2.13;;;;;;;;;;5111069;28;20088;-61
2022/01/28 07:16:36;;;;;;;10.40;2.22;;;;;;;;;;5109101;28;20083;-61
2022/01/28 07:19:02;;;;;;;8.55;2.13;;;;;;;;;;5110519;28;20531;-61
2022/01/28 07:21:28;;;;;;;10.45;2.08;;;;;;;;;;5110141;28;20039;-61
2022/01/28 07:23:54;;;;;;;9.90;2.20;;;;;;;;;;5110508;28;20035;-61
2022/01/28 07:26:20;;;;;;;9.40;2.42;;;;;;;;;;5110393;28;20035;-61
2022/01/28 07:28:48;;;;;;;6.18;1.88;;;;;;;;;;5111179;28;20467;-61
2022/01/28 07:31:15;;;;;;;6.55;1.60;;;;;;;;;;5111080;28;20054;-60
2022/01/28 07:33:41;;;;;;;8.70;2.05;;;;;;;;;;5110673;28;20085;-60
2022/01/28 07:36:07;;;;;;;7.22;1.70;;;;;;;;;;5108483;28;20487;-61
2022/01/28 07:38:33;;;;;;;7.32;1.95;;;;;;;;;;5091771;28;20231;-61
2022/01/28 07:41:01;;;;;;;7.10;2.00;;;;;;;;;;5108889;28;20047;-61
2022/01/28 07:43:27;;;;;;;9.32;2.15;;;;;;;;;;5110109;28;20044;-61
2022/01/28 07:45:53;;;;;;;8.02;1.90;;;;;;;;;;5110303;28;20031;-61
2022/01/28 07:48:19;;;;;;;9.38;2.28;;;;;;;;;;5110264;28;20505;-61
2022/01/28 07:50:45;;;;;;;7.90;1.95;;;;;;;;;;5110267;28;20075;-60
2022/01/28 07:53:15;;;;;;;7.28;1.85;;;;;;;;;;5108724;28;20099;-60
2022/01/28 07:55:41;;;;;;;8.23;1.90;;;;;;;;;;5109414;28;20048;-60
2022/01/28 07:58:07;;;;;;;8.98;2.15;;;;;;;;;;5110037;28;20101;-61
2022/01/28 08:00:33;;;;;;;7.70;2.10;;;;;;;;;;5109828;28;20052;-61
2022/01/28 08:03:00;;;;;;;7.55;2.25;;;;;;;;;;5109323;28;20161;-61
2022/01/28 08:05:26;;;;;;;6.95;1.95;;;;;;;;;;5107730;28;20050;-61
2022/01/28 08:07:52;;;;;;;10.45;2.22;;;;;;;;;;5109156;28;20075;-60
2022/01/28 08:10:19;;;;;;;8.40;1.90;;;;;;;;;;5108648;28;20071;-61
2022/01/28 08:12:52;;;;;;;9.65;2.10;;;;;;;;;;5110247;28;20044;-61
2022/01/28 08:15:20;;;;;;;6.78;1.67;;;;;;;;;;5110200;28;20039;-60
2022/01/28 08:17:46;;;;;;;9.82;2.20;;;;;;;;;;5108908;28;20044;-61
2022/01/28 08:20:12;;;;;;;7.32;1.70;;;;;;;;;;5109470;28;20496;-60
2022/01/28 08:22:48;;;;;;;8.07;1.80;;;;;;;;;;5107794;28;20506;-60
2022/01/28 08:25:14;;;;;;;8.02;2.40;;;;;;;;;;5091703;28;20134;-60
2022/01/28 08:27:47;;;;;;;9.55;2.45;;;;;;;;;;5109664;28;20084;-61
2022/01/28 08:30:13;;;;;;;8.73;2.30;;;;;;;;;;5109870;28;20376;-61
2022/01/28 08:32:39;;;;;;;8.23;2.05;;;;;;;;;;5109977;28;20031;-60
2022/01/28 08:35:06;;;;;;;8.32;2.28;;;;;;;;;;5110117;28;20376;-60
2022/01/28 08:37:32;;;;;;;6.78;1.92;;;;;;;;;;5109365;28;20047;-61
2022/01/28 08:39:59;;;;;;;8.90;1.77;;;;;;;;;;5109803;28;20035;-60
2022/01/28 08:42:25;;;;;;;7.82;2.13;;;;;;;;;;5109364;28;20100;-61
2022/01/28 08:44:51;;;;;;;8.43;2.10;;;;;;;;;;5109763;28;20040;-60
2022/01/28 08:47:17;;;;;;;6.85;1.90;;;;;;;;;;5109912;28;20451;-60
2022/01/28 08:49:43;;;;;;;6.93;1.88;;;;;;;;;;5107681;28;20376;-61
2022/01/28 08:52:09;;;;;;;8.35;2.15;;;;;;;;;;5108645;28;20048;-61
2022/01/28 08:54:35;;;;;;;8.65;2.30;;;;;;;;;;5109239;28;20039;-60
2022/01/28 08:57:01;;;;;;;9.00;2.70;;;;;;;;;;5109370;28;20054;-60
2022/01/28 08:59:27;;;;;;;8.05;2.00;;;;;;;;;;5110044;28;20402;-61
2022/01/28 09:01:53;;;;;;;6.97;1.65;;;;;;;;;;5109176;28;20507;-61
2022/01/28 09:04:19;;;;;;;6.70;2.25;;;;;;;;;;5108306;28;20399;-61
2022/01/28 09:06:46;;;;;;;8.80;1.98;;;;;;;;;;5106460;28;20454;-61
2022/01/28 09:09:12;;;;;;;7.47;1.92;;;;;;;;;;5109280;28;20042;-61
2022/01/28 09:11:54;;;;;;;8.68;1.83;;;;;;;;;;5111046;28;20479;-61
2022/01/28 09:14:21;;;;;;;8.40;2.22;;;;;;;;;;5110067;28;20107;-61
2022/01/28 09:16:47;;;;;;;9.50;1.90;;;;;;;;;;5111178;28;20515;-61
2022/01/28 09:19:13;;;;;;;8.65;1.90;;;;;;;;;;5113495;28;20040;-61
2022/01/28 09:21:39;;;;;;;8.30;2.00;;;;;;;;;;5111495;28;20389;-60
2022/01/28 09:24:05;;;;;;;8.75;1.98;;;;;;;;;;5102612;28;20071;-61
2022/01/28 09:26:32;;;;;;;8.68;2.63;;;;;;;;;;5112910;28;20108;-61
2022/01/28 09:28:58;;;;;;;10.50;2.40;;;;;;;;;;5113172;28;20035;-61
2022/01/28 09:31:24;;;;;;;9.60;2.10;;;;;;;;;;5112936;28;20047;-61
2022/01/28 09:33:50;;;;;;;8.63;2.25;;;;;;;;;;5094621;28;20043;-61
2022/01/28 09:36:16;;;;;;;8.63;1.77;;;;;;;;;;5110845;28;20053;-61
2022/01/28 09:38:42;;;;;;;7.82;2.08;;;;;;;;;;5113130;28;20063;-61
2022/01/28 09:41:09;;;;;;;8.60;2.38;;;;;;;;;;5109625;28;20491;-61
2022/01/28 09:43:35;;;;;;;9.07;2.53;;;;;;;;;;5112662;28;20096;-61
2022/01/28 09:46:04;;;;;;;8.52;2.10;;;;;;;;;;5112771;28;20051;-61
2022/01/28 09:48:31;;;;;;;6.90;2.00;;;;;;;;;;5111076;28;20043;-61
2022/01/28 09:51:00;;;;;;;7.55;2.00;;;;;;;;;;5101648;28;20043;-62
2022/01/28 09:53:26;;;;;;;8.18;2.00;;;;;;;;;;5109424;28;20069;-61
2022/01/28 09:55:52;;;;;;;7.82;1.90;;;;;;;;;;5093348;28;20104;-61
2022/01/28 09:58:18;;;;;;;9.15;2.10;;;;;;;;;;5112443;28;20097;-61
2022/01/28 10:00:44;;;;;;;8.00;2.00;;;;;;;;;;5110971;28;20059;-61
2022/01/28 10:03:11;;;;;;;8.70;2.13;;;;;;;;;;5110733;28;20181;-61
2022/01/28 10:05:39;;;;;;;9.85;2.40;;;;;;;;;;5110994;28;20043;-61
2022/01/28 10:08:24;;;;;;;10.65;2.40;;;;;;;;;;5111915;28;20122;-61
2022/01/28 10:11:02;;;;;;;10.88;2.50;;;;;;;;;;5112412;28;20046;-61
2022/01/28 10:13:33;;;;;;;9.40;2.13;;;;;;;;;;5110508;28;20478;-61
2022/01/28 10:16:02;;;;;;;7.85;2.00;;;;;;;;;;5112310;28;20049;-61
2022/01/28 10:18:39;;;;;;;8.90;2.50;;;;;;;;;;5112296;28;20039;-61
2022/01/28 10:21:15;;;;;;;8.90;2.13;;;;;;;;;;5111291;28;20042;-61
2022/01/28 10:23:41;;;;;;;9.25;2.17;;;;;;;;;;5111867;28;20035;-61
2022/01/28 10:26:07;;;;;;;9.80;2.22;;;;;;;;;;5110425;28;20104;-61
2022/01/28 10:28:33;;;;;;;9.95;2.03;;;;;;;;;;5110603;28;20051;-61
2022/01/28 10:30:59;;;;;;;8.30;2.22;;;;;;;;;;5111748;28;20035;-61
2022/01/28 10:33:26;;;;;;;8.80;2.53;;;;;;;;;;5110841;28;20119;-61
2022/01/28 10:35:57;;;;;;;8.80;2.47;;;;;;;;;;5110792;28;20059;-61
2022/01/28 10:38:33;;;;;;;8.77;2.15;;;;;;;;;;5109891;28;20048;-61
2022/01/28 10:41:17;;;;;;;9.00;2.13;;;;;;;;;;5110795;28;20043;-61
2022/01/28 10:43:44;;;;;;;11.98;2.30;;;;;;;;;;5112121;28;20039;-61
2022/01/28 10:46:10;;;;;;;9.43;2.28;;;;;;;;;;5110221;28;20107;-61
2022/01/28 10:49:08;;;;;;;6.88;1.92;;;;;;;;;;5109532;28;20044;-61
2022/01/28 10:51:52;;;;;;;10.73;2.20;;;;;;;;;;5046693;28;20064;-61
2022/01/28 10:54:24;;;;;;;9.13;2.30;;;;;;;;;;5048651;28;20040;-61
2022/01/28 10:56:55;;;;;;;9.05;2.42;;;;;;;;;;5046990;28;20057;-61
2022/01/28 10:59:31;;;;;;;10.30;2.72;;;;;;;;;;5048537;28;20040;-61
2022/01/28 11:01:57;;;;;;;9.57;2.50;;;;;;;;;;5042876;28;20137;-61
2022/01/28 11:04:23;;;;;;;8.60;2.08;;;;;;;;;;5028191;28;20088;-61
2022/01/28 11:06:50;;;;;;;8.27;2.25;;;;;;;;;;5029049;28;20041;-61
2022/01/28 11:09:17;;;;;;;10.02;2.33;;;;;;;;;;5011912;28;20137;-61
2022/01/28 11:11:43;;;;;;;8.65;2.38;;;;;;;;;;5011835;28;20551;-62
2022/01/28 11:14:09;;;;;;;9.80;2.33;;;;;;;;;;5011070;28;20061;-61
2022/01/28 11:16:35;;;;;;;10.52;2.35;;;;;;;;;;5010993;28;20053;-62
2022/01/28 11:19:02;;;;;;;13.73;2.88;;;;;;;;;;5028252;28;20106;-64
2022/01/28 11:21:31;;;;;;;6.35;1.50;;;;;;;;;;5030733;28;20667;-65
2022/01/28 11:24:16;;;;;;;9.23;2.17;;;;;;;;;;5031556;28;20063;-62
2022/01/28 11:26:55;;;;;;;8.43;1.95;;;;;;;;;;5047949;28;20048;-69
2022/01/28 11:29:25;;;;;;;8.55;2.47;;;;;;;;;;5108719;28;20048;-61
2022/01/28 11:31:51;;;;;;;9.82;2.60;;;;;;;;;;5109616;28;20052;-62
2022/01/28 11:34:24;;;;;;;11.70;2.55;;;;;;;;;;5111007;28;20047;-61
2022/01/28 11:36:51;;;;;;;12.13;3.00;;;;;;;;;;5110136;28;20503;-61
2022/01/28 11:39:20;;;;;;;8.35;2.22;;;;;;;;;;5108720;28;20341;-61
2022/01/28 11:42:05;;;;;;;11.02;2.65;;;;;;;;;;5110538;28;20056;-60
2022/01/28 11:44:49;;;;;;;8.48;2.13;;;;;;;;;;5110691;28;20375;-61
2022/01/28 11:47:23;;;;;;;10.65;2.40;;;;;;;;;;5110343;28;20078;-61
2022/01/28 11:50:08;;;;;;;12.07;2.65;;;;;;;;;;5109990;28;20093;-62
2022/01/28 11:52:44;;;;;;;9.90;2.35;;;;;;;;;;5109709;28;20048;-63
2022/01/28 11:55:25;;;;;;;10.32;2.30;;;;;;;;;;5108827;28;20153;-62
2022/01/28 11:57:57;;;;;;;10.30;2.15;;;;;;;;;;5108008;28;20051;-64
2022/01/28 12:00:24;;;;;;;11.75;2.67;;;;;;;;;;5109189;28;20046;-60
2022/01/28 12:02:51;;;;;;;10.10;2.80;;;;;;;;;;5109521;28;20051;-61
2022/01/28 12:05:31;;;;;;;10.20;2.70;;;;;;;;;;5091313;28;20100;-61
2022/01/28 12:08:00;;;;;;;9.02;2.25;;;;;;;;;;5109465;28;20651;-62
2022/01/28 12:10:27;;;;;;;24.10;3.90;;;;;;;;;;5110056;28;20046;-64
2022/01/28 12:12:59;;;;;;;11.55;2.42;;;;;;;;;;5092461;28;20087;-61
2022/01/28 12:15:29;;;;;;;9.60;2.25;;;;;;;;;;5110511;28;20043;-61
2022/01/28 12:18:10;;;;;;;10.38;2.80;;;;;;;;;;5107481;28;20091;-61
2022/01/28 12:20:36;;;;;;;10.82;2.45;;;;;;;;;;5110027;28;20045;-61
2022/01/28 12:23:05;;;;;;;10.52;2.40;;;;;;;;;;5098455;28;20050;-62
2022/01/28 12:25:44;;;;;;;9.55;2.50;;;;;;;;;;5108810;28;20039;-61
2022/01/28 12:28:13;;;;;;;9.70;2.45;;;;;;;;;;5108707;28;20067;-61
2022/01/28 12:30:39;;;;;;;9.10;2.40;;;;;;;;;;5110274;28;20035;-61
2022/01/28 12:33:05;;;;;;;11.07;2.58;;;;;;;;;;5109681;28;20042;-61
2022/01/28 12:35:31;;;;;;;11.73;2.65;;;;;;;;;;5109608;28;20116;-62
2022/01/28 12:38:02;;;;;;;7.22;1.92;;;;;;;;;;5108920;28;20143;-61
2022/01/28 12:40:35;;;;;;;10.45;2.70;;;;;;;;;;5108190;28;20159;-61
2022/01/28 12:43:01;;;;;;;9.07;2.47;;;;;;;;;;5092110;28;20459;-62
2022/01/28 12:45:27;;;;;;;10.23;2.33;;;;;;;;;;5110401;28;20366;-61
2022/01/28 12:47:53;;;;;;;8.80;2.03;;;;;;;;;;5113260;28;20067;-61
2022/01/28 12:50:20;;;;;;;8.20;2.25;;;;;;;;;;5112280;28;20031;-61
2022/01/28 12:52:46;;;;;;;6.85;2.13;;;;;;;;;;5111995;28;20499;-62
2022/01/28 12:55:12;;;;;;;7.68;2.15;;;;;;;;;;5095659;28;20047;-61
2022/01/28 12:57:45;;;;;;;10.18;2.20;;;;;;;;;;5112735;28;20074;-62
2022/01/28 13:00:12;;;;;;;8.35;2.13;;;;;;;;;;5112403;28;20101;-62
2022/01/28 13:02:40;;;;;;;9.93;2.88;;;;;;;;;;5113374;28;20491;-61
2022/01/28 13:10:19;;;;;;;9.52;2.42;;;;;;;;;;5113137;28;20192;-61
2022/01/28 13:12:45;;;;;;;9.85;2.47;;;;;;;;;;5113302;28;20479;-61
2022/01/28 13:15:12;;;;;;;9.57;2.60;;;;;;;;;;5113553;28;20491;-62
2022/01/28 13:17:39;;;;;;;8.85;2.47;;;;;;;;;;5113219;28;20078;-62
2022/01/28 13:20:06;;;;;;;10.18;2.50;;;;;;;;;;5113683;28;20075;-62
2022/01/28 13:22:32;;;;;;;8.95;2.75;;;;;;;;;;5112408;28;20035;-61
2022/01/28 13:24:58;;;;;;;9.43;2.45;;;;;;;;;;5110978;28;20043;-62
2022/01/28 13:27:44;;;;;;;10.02;2.85;;;;;;;;;;5113187;28;20145;-62
2022/01/28 13:30:14;;;;;;;9.48;2.10;;;;;;;;;;5112252;28;20051;-61
2022/01/28 13:32:41;;;;;;;10.55;2.45;;;;;;;;;;5113088;28;20441;-61
2022/01/28 13:35:14;;;;;;;8.43;2.30;;;;;;;;;;5090726;28;20116;-62
2022/01/28 13:37:41;;;;;;;8.25;2.10;;;;;;;;;;5112150;28;20570;-62
2022/01/28 13:40:16;;;;;;;9.25;2.10;;;;;;;;;;5112901;28;20363;-62
2022/01/28 13:43:00;;;;;;;8.80;2.05;;;;;;;;;;5111596;28;20411;-62
2022/01/28 13:45:39;;;;;;;10.20;2.13;;;;;;;;;;5094506;28;20038;-61
2022/01/28 13:48:06;;;;;;;8.93;2.33;;;;;;;;;;5112072;28;20118;-61
2022/01/28 13:50:33;;;;;;;8.48;2.20;;;;;;;;;;5112262;28;20040;-62
2022/01/28 13:55:55;;;;;;;8.20;2.50;;;;;;;;;;5049246;28;20037;-62
2022/01/28 13:58:21;;;;;;;9.30;2.10;;;;;;;;;;5031023;28;20180;-61
2022/01/28 14:00:48;;;;;;;8.27;2.00;;;;;;;;;;5036311;28;20146;-61
2022/01/28 14:03:20;;;;;;;9.13;2.40;;;;;;;;;;5036537;28;20530;-61
2022/01/28 14:05:55;;;;;;;7.95;2.13;;;;;;;;;;5038558;28;20053;-61
2022/01/28 14:08:40;;;;;;;7.50;2.30;;;;;;;;;;5012707;28;20565;-61
2022/01/28 14:11:33;;;;;;;7.40;2.00;;;;;;;;;;5013841;28;20046;-61
2022/01/28 14:14:05;;;;;;;12.25;2.50;;;;;;;;;;5015977;28;20088;-62
2022/01/28 14:16:31;;;;;;;9.23;2.42;;;;;;;;;;5029480;28;20091;-62
2022/01/28 14:18:57;;;;;;;9.45;2.65;;;;;;;;;;5029575;28;20053;-61
2022/01/28 14:21:23;;;;;;;9.07;2.33;;;;;;;;;;5029093;28;20092;-62
2022/01/28 14:23:50;;;;;;;8.00;2.65;;;;;;;;;;5011938;28;20383;-61
2022/01/28 14:26:17;;;;;;;8.77;2.10;;;;;;;;;;5012556;28;20391;-61
2022/01/28 14:29:20;;;;;;;7.43;2.00;;;;;;;;;;5029499;28;20382;-61
2022/01/28 14:31:44;;;;;;;8.30;2.33;;;;;;;;;;5045674;28;20127;-61
2022/01/28 14:34:10;;;;;;;9.57;2.60;;;;;;;;;;5109698;28;20123;-61
2022/01/28 14:36:40;;;;;;;8.27;1.98;;;;;;;;;;5111329;28;20439;-61
2022/01/28 14:39:06;;;;;;;7.82;2.22;;;;;;;;;;5111761;28;20040;-61
2022/01/28 14:41:32;;;;;;;9.13;2.05;;;;;;;;;;5111627;28;20042;-61
2022/01/28 14:43:58;;;;;;;9.10;2.30;;;;;;;;;;5111450;28;20118;-62
2022/01/28 14:46:25;;;;;;;8.43;2.10;;;;;;;;;;5110494;28;20093;-61
2022/01/28 14:48:52;;;;;;;10.77;2.20;;;;;;;;;;5111921;28;20078;-61
2022/01/28 14:51:18;;;;;;;9.05;2.00;;;;;;;;;;5111237;28;20054;-61
2022/01/28 14:53:44;;;;;;;7.88;2.33;;;;;;;;;;5111365;28;20379;-61
2022/01/28 14:56:10;;;;;;;8.82;2.10;;;;;;;;;;5110024;28;20039;-61
2022/01/28 14:58:36;;;;;;;9.43;2.15;;;;;;;;;;5093186;28;20126;-61
2022/01/28 15:01:02;;;;;;;7.65;1.88;;;;;;;;;;5109959;28;20039;-61
2022/01/28 15:03:28;;;;;;;9.23;2.47;;;;;;;;;;5110057;28;20059;-62
2022/01/28 15:05:54;;;;;;;9.75;2.38;;;;;;;;;;5111057;28;20039;-61
2022/01/28 15:08:26;;;;;;;8.75;2.30;;;;;;;;;;5109370;28;20168;-61
2022/01/28 15:10:54;;;;;;;9.38;2.28;;;;;;;;;;5111420;28;20054;-61
2022/01/28 15:13:20;;;;;;;11.10;2.75;;;;;;;;;;5111472;28;20040;-61
2022/01/28 15:15:46;;;;;;;7.82;1.80;;;;;;;;;;5109393;28;20043;-62
2022/01/28 15:18:12;;;;;;;7.47;1.80;;;;;;;;;;5110949;28;20039;-62
2022/01/28 15:20:38;;;;;;;8.07;2.10;;;;;;;;;;5109559;28;20089;-61
2022/01/28 15:23:05;;;;;;;7.57;1.70;;;;;;;;;;5110305;28;20042;-62
2022/01/28 15:25:31;;;;;;;7.40;1.73;;;;;;;;;;5109734;28;20043;-61
2022/01/28 15:27:58;;;;;;;8.73;2.17;;;;;;;;;;5110597;28;20039;-61
2022/01/28 15:38:10;;;;;;;9.82;2.55;;;;;;;;;;5110613;28;20131;-62
2022/01/28 15:40:36;;;;;;;8.20;1.77;;;;;;;;;;5110969;28;20115;-61
2022/01/28 15:43:02;;;;;;;7.47;1.90;;;;;;;;;;5110715;28;20103;-61
2022/01/28 15:45:31;;;;;;;9.02;2.03;;;;;;;;;;5110754;28;20146;-62
2022/01/28 15:47:58;;;;;;;9.05;1.92;;;;;;;;;;5117169;27;20039;-61
2022/01/28 15:50:25;;;;;;;9.77;2.20;;;;;;;;;;5118894;27;20499;-62
2022/01/28 15:52:51;;;;;;;7.90;1.95;;;;;;;;;;5101625;28;20050;-61
2022/01/28 15:55:17;;;;;;;7.80;2.00;;;;;;;;;;5110791;28;20503;-62
2022/01/28 15:57:44;;;;;;;7.60;2.17;;;;;;;;;;5108801;28;20047;-61
2022/01/28 16:00:10;;;;;;;8.20;1.80;;;;;;;;;;5114751;27;20046;-61
2022/01/28 16:02:36;;;;;;;7.22;1.92;;;;;;;;;;5114033;27;20419;-61
2022/01/28 16:05:02;;;;;;;7.57;1.70;;;;;;;;;;5092577;28;20411;-61
2022/01/28 16:07:30;;;;;;;7.78;1.80;;;;;;;;;;5103707;28;20031;-61
2022/01/28 16:10:04;;;;;;;7.03;2.30;;;;;;;;;;5109684;28;20071;-62
2022/01/28 16:15:18;;;;;;;13.55;2.38;;;;;;;;;;5113737;27;20079;-61
2022/01/28 16:17:44;;;;;;;13.00;2.58;;;;;;;;;;5110331;28;20059;-61
2022/01/28 16:20:10;;;;;;;13.18;2.55;;;;;;;;;;5110003;28;20077;-62
2022/01/28 16:22:36;;;;;;;13.07;2.40;;;;;;;;;;5109540;28;20507;-62
2022/01/28 16:25:02;;;;;;;15.02;2.63;;;;;;;;;;5112047;28;20073;-61
2022/01/28 16:27:28;;;;;;;14.88;2.58;;;;;;;;;;5110074;28;20032;-61
2022/01/28 16:29:54;;;;;;;12.43;2.30;;;;;;;;;;5113880;28;20047;-62
2022/01/28 16:32:21;;;;;;;13.15;2.60;;;;;;;;;;5109941;28;20039;-61
2022/01/28 16:34:49;;;;;;;14.27;2.63;;;;;;;;;;5113875;28;20081;-61